createdAt,value
2017-02-06T00:00:04.828Z,1003.84
2017-02-06T00:00:45.477Z,1003.85
2017-02-06T00:01:26.132Z,1003.86
2017-02-06T00:02:06.795Z,1003.9
2017-02-06T00:02:47.437Z,1003.92
2017-02-06T00:03:28.099Z,1003.96
2017-02-06T00:04:08.745Z,1003.96
2017-02-06T00:04:49.444Z,1003.98
2017-02-06T00:05:30.047Z,1004
2017-02-06T00:06:10.704Z,1004
2017-02-06T00:06:51.354Z,1004.02
2017-02-06T00:07:32.008Z,1004.05
2017-02-06T00:08:12.661Z,1004.01
2017-02-06T00:08:53.313Z,1004.03
2017-02-06T00:09:33.972Z,1004.02
2017-02-06T00:10:14.613Z,1004.01
2017-02-06T00:10:55.269Z,1004
2017-02-06T00:11:35.936Z,1004.03
2017-02-06T00:12:16.578Z,1004.04
2017-02-06T00:12:57.230Z,1004.05
2017-02-06T00:13:37.882Z,1004.05
2017-02-06T00:14:18.537Z,1004.09
2017-02-06T00:14:59.189Z,1004.12
2017-02-06T00:15:39.841Z,1004.13
2017-02-06T00:16:20.494Z,1004.1
2017-02-06T00:17:01.150Z,1004.11
2017-02-06T00:17:41.799Z,1004.12
2017-02-06T00:18:22.453Z,1004.14
2017-02-06T00:19:03.023Z,1004.12
2017-02-06T00:19:43.627Z,1004.17
2017-02-06T00:20:24.220Z,1004.15
2017-02-06T00:21:04.867Z,1004.14
2017-02-06T00:21:45.442Z,1004.13
2017-02-06T00:22:26.013Z,1004.13
2017-02-06T00:23:06.611Z,1004.17
2017-02-06T00:23:47.266Z,1004.17
2017-02-06T00:24:27.853Z,1004.16
2017-02-06T00:25:08.438Z,1004.15
2017-02-06T00:25:49.020Z,1004.18
2017-02-06T00:26:29.680Z,1004.17
2017-02-06T00:27:10.254Z,1004.22
2017-02-06T00:27:50.829Z,1004.22
2017-02-06T00:28:31.426Z,1004.22
2017-02-06T00:29:12.078Z,1004.24
2017-02-06T00:29:52.648Z,1004.26
2017-02-06T00:30:33.251Z,1004.21
2017-02-06T00:31:13.938Z,1004.23
2017-02-06T00:31:54.591Z,1004.26
2017-02-06T00:32:35.146Z,1004.32
2017-02-06T00:33:15.747Z,1004.3
2017-02-06T00:33:57.367Z,1004.34
2017-02-06T00:34:38.021Z,1004.29
2017-02-06T00:35:18.592Z,1004.33
2017-02-06T00:35:59.278Z,1004.34
2017-02-06T00:36:39.983Z,1004.35
2017-02-06T00:37:20.641Z,1004.36
2017-02-06T00:38:01.193Z,1004.36
2017-02-06T00:38:41.891Z,1004.33
2017-02-06T00:39:22.485Z,1004.31
2017-02-06T00:40:03.148Z,1004.34
2017-02-06T00:40:43.723Z,1004.31
2017-02-06T00:41:24.399Z,1004.34
2017-02-06T00:42:05.100Z,1004.32
2017-02-06T00:42:45.758Z,1004.38
2017-02-06T00:43:26.326Z,1004.34
2017-02-06T00:44:07.018Z,1004.35
2017-02-06T00:44:47.670Z,1004.38
2017-02-06T00:45:28.319Z,1004.39
2017-02-06T00:46:08.976Z,1004.4
2017-02-06T00:46:49.726Z,1004.37
2017-02-06T00:47:30.381Z,1004.38
2017-02-06T00:48:11.031Z,1004.35
2017-02-06T00:48:51.683Z,1004.4
2017-02-06T00:49:32.338Z,1004.4
2017-02-06T00:50:13.020Z,1004.41
2017-02-06T00:50:53.665Z,1004.42
2017-02-06T00:51:34.321Z,1004.43
2017-02-06T00:52:14.950Z,1004.39
2017-02-06T00:52:55.604Z,1004.38
2017-02-06T00:53:36.258Z,1004.43
2017-02-06T00:54:16.908Z,1004.43
2017-02-06T00:54:57.561Z,1004.43
2017-02-06T00:55:38.235Z,1004.42
2017-02-06T00:56:18.870Z,1004.42
2017-02-06T00:56:59.516Z,1004.4
2017-02-06T00:57:40.176Z,1004.4
2017-02-06T00:58:20.827Z,1004.44
2017-02-06T00:59:01.482Z,1004.44
2017-02-06T00:59:42.289Z,1004.44
2017-02-06T01:00:22.941Z,1004.49
2017-02-06T01:01:03.589Z,1004.48
2017-02-06T01:01:44.245Z,1004.51
2017-02-06T01:02:24.889Z,1004.49
2017-02-06T01:03:05.547Z,1004.49
2017-02-06T01:03:46.212Z,1004.5
2017-02-06T01:04:26.855Z,1004.53
2017-02-06T01:05:07.508Z,1004.54
2017-02-06T01:05:48.163Z,1004.56
2017-02-06T01:06:28.817Z,1004.62
2017-02-06T01:07:09.469Z,1004.6
2017-02-06T01:07:50.122Z,1004.57
2017-02-06T01:08:30.773Z,1004.62
2017-02-06T01:09:11.425Z,1004.59
2017-02-06T01:09:52.080Z,1004.6
2017-02-06T01:10:32.735Z,1004.61
2017-02-06T01:11:13.385Z,1004.62
2017-02-06T01:11:54.038Z,1004.6
2017-02-06T01:12:34.697Z,1004.65
2017-02-06T01:13:15.453Z,1004.64
2017-02-06T01:13:56.098Z,1004.67
2017-02-06T01:14:36.650Z,1004.61
2017-02-06T01:15:17.353Z,1004.69
2017-02-06T01:15:57.955Z,1004.69
2017-02-06T01:16:38.536Z,1004.76
2017-02-06T01:17:19.213Z,1004.71
2017-02-06T01:17:59.964Z,1004.74
2017-02-06T01:18:40.668Z,1004.75
2017-02-06T01:19:21.321Z,1004.76
2017-02-06T01:20:01.975Z,1004.74
2017-02-06T01:20:42.627Z,1004.77
2017-02-06T01:21:23.280Z,1004.77
2017-02-06T01:22:03.932Z,1004.78
2017-02-06T01:22:44.583Z,1004.8
2017-02-06T01:23:25.238Z,1004.82
2017-02-06T01:24:05.892Z,1004.82
2017-02-06T01:24:46.551Z,1004.86
2017-02-06T01:25:27.214Z,1004.87
2017-02-06T01:26:07.848Z,1004.87
2017-02-06T01:26:48.502Z,1004.88
2017-02-06T01:27:29.153Z,1004.94
2017-02-06T01:28:09.808Z,1004.93
2017-02-06T01:28:50.460Z,1004.95
2017-02-06T01:29:31.115Z,1004.99
2017-02-06T01:30:11.768Z,1004.99
2017-02-06T01:30:52.418Z,1005
2017-02-06T01:31:33.079Z,1005.01
2017-02-06T01:32:13.724Z,1005.01
2017-02-06T01:32:54.377Z,1004.99
2017-02-06T01:33:35.055Z,1005
2017-02-06T01:34:15.594Z,1005
2017-02-06T01:34:56.252Z,1005.03
2017-02-06T01:35:36.905Z,1005.03
2017-02-06T01:36:17.468Z,1005.05
2017-02-06T01:36:59.120Z,1005.02
2017-02-06T01:37:39.767Z,1005.06
2017-02-06T01:38:20.335Z,1005.08
2017-02-06T01:39:00.972Z,1005.05
2017-02-06T01:39:41.622Z,1005.06
2017-02-06T01:40:22.198Z,1005.06
2017-02-06T01:41:02.898Z,1005.05
2017-02-06T01:41:43.498Z,1005.09
2017-02-06T01:42:24.240Z,1005.08
2017-02-06T01:43:04.860Z,1005.1
2017-02-06T01:43:45.522Z,1005.12
2017-02-06T01:44:26.213Z,1005.13
2017-02-06T01:45:06.855Z,1005.12
2017-02-06T01:45:47.417Z,1005.13
2017-02-06T01:46:28.124Z,1005.12
2017-02-06T01:47:08.813Z,1005.14
2017-02-06T01:47:50.490Z,1005.14
2017-02-06T01:48:31.049Z,1005.15
2017-02-06T01:49:11.751Z,1005.12
2017-02-06T01:49:52.449Z,1005.23
2017-02-06T01:50:33.003Z,1005.22
2017-02-06T01:51:13.641Z,1005.25
2017-02-06T01:51:54.298Z,1005.28
2017-02-06T01:52:34.864Z,1005.29
2017-02-06T01:53:15.515Z,1005.3
2017-02-06T01:53:56.171Z,1005.33
2017-02-06T01:54:36.809Z,1005.32
2017-02-06T01:55:17.473Z,1005.35
2017-02-06T01:55:58.127Z,1005.36
2017-02-06T01:56:38.773Z,1005.37
2017-02-06T01:57:19.427Z,1005.38
2017-02-06T01:58:01.107Z,1005.38
2017-02-06T01:58:41.757Z,1005.38
2017-02-06T01:59:22.415Z,1005.45
2017-02-06T02:00:03.060Z,1005.39
2017-02-06T02:00:43.720Z,1005.44
2017-02-06T02:01:24.372Z,1005.42
2017-02-06T02:02:05.018Z,1005.47
2017-02-06T02:02:45.681Z,1005.44
2017-02-06T02:03:26.321Z,1005.45
2017-02-06T02:04:06.895Z,1005.52
2017-02-06T02:04:47.535Z,1005.5
2017-02-06T02:05:28.183Z,1005.51
2017-02-06T02:06:08.742Z,1005.51
2017-02-06T02:06:49.390Z,1005.53
2017-02-06T02:07:30.043Z,1005.55
2017-02-06T02:08:10.619Z,1005.51
2017-02-06T02:08:51.246Z,1005.51
2017-02-06T02:09:31.894Z,1005.55
2017-02-06T02:10:12.547Z,1005.55
2017-02-06T02:10:53.232Z,1005.54
2017-02-06T02:11:33.854Z,1005.57
2017-02-06T02:12:14.510Z,1005.58
2017-02-06T02:12:55.165Z,1005.62
2017-02-06T02:13:35.815Z,1005.61
2017-02-06T02:14:16.391Z,1005.62
2017-02-06T02:14:57.021Z,1005.66
2017-02-06T02:15:37.679Z,1005.68
2017-02-06T02:16:18.245Z,1005.65
2017-02-06T02:16:58.867Z,1005.69
2017-02-06T02:17:40.543Z,1005.72
2017-02-06T02:18:21.124Z,1005.73
2017-02-06T02:19:01.735Z,1005.74
2017-02-06T02:19:42.390Z,1005.8
2017-02-06T02:20:23.041Z,1005.78
2017-02-06T02:21:03.718Z,1005.83
2017-02-06T02:21:44.374Z,1005.83
2017-02-06T02:22:25.018Z,1005.88
2017-02-06T02:23:05.671Z,1005.9
2017-02-06T02:23:46.328Z,1005.88
2017-02-06T02:24:26.983Z,1005.91
2017-02-06T02:25:07.550Z,1005.9
2017-02-06T02:25:48.184Z,1005.98
2017-02-06T02:26:28.833Z,1006
2017-02-06T02:27:09.388Z,1005.99
2017-02-06T02:27:50.042Z,1005.98
2017-02-06T02:28:30.691Z,1006.06
2017-02-06T02:29:11.246Z,1006.08
2017-02-06T02:29:51.893Z,1006.09
2017-02-06T02:30:32.546Z,1006.14
2017-02-06T02:31:13.101Z,1006.15
2017-02-06T02:31:53.826Z,1006.16
2017-02-06T02:32:34.504Z,1006.18
2017-02-06T02:33:15.157Z,1006.15
2017-02-06T02:33:55.736Z,1006.24
2017-02-06T02:34:36.463Z,1006.18
2017-02-06T02:35:17.115Z,1006.23
2017-02-06T02:35:57.771Z,1006.22
2017-02-06T02:36:38.422Z,1006.25
2017-02-06T02:37:19.076Z,1006.27
2017-02-06T02:37:59.728Z,1006.3
2017-02-06T02:38:40.384Z,1006.35
2017-02-06T02:39:20.934Z,1006.33
2017-02-06T02:40:01.633Z,1006.35
2017-02-06T02:40:42.340Z,1006.4
2017-02-06T02:41:22.994Z,1006.39
2017-02-06T02:42:03.552Z,1006.4
2017-02-06T02:42:44.143Z,1006.41
2017-02-06T02:43:24.736Z,1006.44
2017-02-06T02:44:05.399Z,1006.43
2017-02-06T02:44:46.059Z,1006.4
2017-02-06T02:45:26.704Z,1006.46
2017-02-06T02:46:07.358Z,1006.46
2017-02-06T02:46:48.010Z,1006.45
2017-02-06T02:47:28.663Z,1006.47
2017-02-06T02:48:09.318Z,1006.44
2017-02-06T02:48:49.970Z,1006.48
2017-02-06T02:49:30.663Z,1006.49
2017-02-06T02:50:11.418Z,1006.51
2017-02-06T02:50:52.167Z,1006.5
2017-02-06T02:51:32.833Z,1006.53
2017-02-06T02:52:13.481Z,1006.52
2017-02-06T02:52:54.134Z,1006.52
2017-02-06T02:53:34.779Z,1006.53
2017-02-06T02:54:15.352Z,1006.61
2017-02-06T02:54:55.952Z,1006.56
2017-02-06T02:55:36.631Z,1006.56
2017-02-06T02:56:17.288Z,1006.6
2017-02-06T02:56:57.861Z,1006.63
2017-02-06T02:57:38.456Z,1006.62
2017-02-06T02:58:19.041Z,1006.63
2017-02-06T02:58:59.693Z,1006.68
2017-02-06T02:59:40.271Z,1006.67
2017-02-06T03:00:20.900Z,1006.7
2017-02-06T03:01:01.552Z,1006.72
2017-02-06T03:01:42.123Z,1006.7
2017-02-06T03:02:22.751Z,1006.71
2017-02-06T03:03:03.425Z,1006.74
2017-02-06T03:03:43.982Z,1006.73
2017-02-06T03:04:24.639Z,1006.76
2017-02-06T03:05:05.265Z,1006.74
2017-02-06T03:05:45.838Z,1006.77
2017-02-06T03:06:26.484Z,1006.78
2017-02-06T03:07:07.119Z,1006.79
2017-02-06T03:07:47.668Z,1006.76
2017-02-06T03:08:28.343Z,1006.8
2017-02-06T03:09:08.977Z,1006.75
2017-02-06T03:09:49.629Z,1006.78
2017-02-06T03:10:30.290Z,1006.78
2017-02-06T03:11:10.935Z,1006.82
2017-02-06T03:11:51.598Z,1006.84
2017-02-06T03:12:32.252Z,1006.85
2017-02-06T03:13:12.893Z,1006.83
2017-02-06T03:13:53.563Z,1006.88
2017-02-06T03:14:34.209Z,1006.93
2017-02-06T03:15:14.860Z,1006.92
2017-02-06T03:15:55.509Z,1006.93
2017-02-06T03:16:36.073Z,1006.91
2017-02-06T03:17:16.664Z,1006.97
2017-02-06T03:17:57.323Z,1006.97
2017-02-06T03:18:37.979Z,1006.95
2017-02-06T03:19:18.633Z,1006.97
2017-02-06T03:19:59.224Z,1007
2017-02-06T03:20:39.790Z,1007.02
2017-02-06T03:21:20.418Z,1006.97
2017-02-06T03:22:01.997Z,1006.97
2017-02-06T03:22:42.573Z,1007.01
2017-02-06T03:23:23.216Z,1007.02
2017-02-06T03:24:03.858Z,1007.01
2017-02-06T03:24:44.516Z,1007.02
2017-02-06T03:25:25.165Z,1007.03
2017-02-06T03:26:05.811Z,1007.05
2017-02-06T03:26:46.468Z,1007.04
2017-02-06T03:27:27.123Z,1007.09
2017-02-06T03:28:07.774Z,1007.1
2017-02-06T03:28:48.429Z,1007.11
2017-02-06T03:29:28.997Z,1007.12
2017-02-06T03:30:09.590Z,1007.15
2017-02-06T03:30:50.174Z,1007.15
2017-02-06T03:31:30.836Z,1007.18
2017-02-06T03:32:11.409Z,1007.22
2017-02-06T03:32:52.004Z,1007.22
2017-02-06T03:33:32.705Z,1007.22
2017-02-06T03:34:13.360Z,1007.2
2017-02-06T03:34:54.014Z,1007.18
2017-02-06T03:35:34.667Z,1007.22
2017-02-06T03:36:15.319Z,1007.24
2017-02-06T03:36:55.973Z,1007.26
2017-02-06T03:37:36.625Z,1007.24
2017-02-06T03:38:17.277Z,1007.27
2017-02-06T03:38:57.932Z,1007.24
2017-02-06T03:39:38.583Z,1007.26
2017-02-06T03:40:19.237Z,1007.28
2017-02-06T03:40:59.889Z,1007.31
2017-02-06T03:41:40.544Z,1007.35
2017-02-06T03:42:21.196Z,1007.31
2017-02-06T03:43:01.847Z,1007.35
2017-02-06T03:43:42.521Z,1007.37
2017-02-06T03:44:23.155Z,1007.33
2017-02-06T03:45:03.807Z,1007.36
2017-02-06T03:45:44.462Z,1007.37
2017-02-06T03:46:25.114Z,1007.4
2017-02-06T03:47:05.765Z,1007.39
2017-02-06T03:47:46.418Z,1007.44
2017-02-06T03:48:27.073Z,1007.48
2017-02-06T03:49:07.764Z,1007.48
2017-02-06T03:49:48.281Z,1007.49
2017-02-06T03:50:29.927Z,1007.55
2017-02-06T03:51:10.608Z,1007.45
2017-02-06T03:51:51.258Z,1007.5
2017-02-06T03:52:31.838Z,1007.5
2017-02-06T03:53:12.398Z,1007.5
2017-02-06T03:53:53.014Z,1007.51
2017-02-06T03:54:33.663Z,1007.55
2017-02-06T03:55:14.230Z,1007.54
2017-02-06T03:55:54.867Z,1007.58
2017-02-06T03:56:35.522Z,1007.59
2017-02-06T03:57:16.083Z,1007.62
2017-02-06T03:57:56.719Z,1007.58
2017-02-06T03:58:37.379Z,1007.61
2017-02-06T03:59:17.941Z,1007.61
2017-02-06T03:59:58.581Z,1007.62
2017-02-06T04:00:40.157Z,1007.58
2017-02-06T04:01:20.810Z,1007.6
2017-02-06T04:02:01.463Z,1007.6
2017-02-06T04:02:42.115Z,1007.65
2017-02-06T04:03:22.768Z,1007.63
2017-02-06T04:04:03.418Z,1007.62
2017-02-06T04:04:43.993Z,1007.61
2017-02-06T04:05:24.629Z,1007.62
2017-02-06T04:06:05.279Z,1007.61
2017-02-06T04:06:45.832Z,1007.61
2017-02-06T04:07:26.478Z,1007.66
2017-02-06T04:08:07.138Z,1007.66
2017-02-06T04:08:47.694Z,1007.69
2017-02-06T04:09:28.336Z,1007.66
2017-02-06T04:10:08.988Z,1007.68
2017-02-06T04:10:49.551Z,1007.71
2017-02-06T04:11:30.243Z,1007.68
2017-02-06T04:12:10.844Z,1007.68
2017-02-06T04:12:51.499Z,1007.72
2017-02-06T04:13:32.059Z,1007.69
2017-02-06T04:14:12.651Z,1007.71
2017-02-06T04:14:53.251Z,1007.69
2017-02-06T04:15:33.908Z,1007.67
2017-02-06T04:16:14.548Z,1007.69
2017-02-06T04:16:55.213Z,1007.72
2017-02-06T04:17:35.868Z,1007.74
2017-02-06T04:18:16.514Z,1007.78
2017-02-06T04:18:57.205Z,1007.78
2017-02-06T04:19:37.829Z,1007.76
2017-02-06T04:20:18.478Z,1007.76
2017-02-06T04:20:59.120Z,1007.81
2017-02-06T04:21:39.783Z,1007.79
2017-02-06T04:22:20.436Z,1007.81
2017-02-06T04:23:01.086Z,1007.78
2017-02-06T04:23:41.742Z,1007.84
2017-02-06T04:24:22.395Z,1007.86
2017-02-06T04:25:03.050Z,1007.85
2017-02-06T04:25:43.695Z,1007.86
2017-02-06T04:26:24.352Z,1007.87
2017-02-06T04:27:04.919Z,1007.87
2017-02-06T04:27:45.508Z,1007.87
2017-02-06T04:28:26.205Z,1007.88
2017-02-06T04:29:06.861Z,1007.89
2017-02-06T04:29:47.427Z,1007.88
2017-02-06T04:30:28.062Z,1007.86
2017-02-06T04:31:08.717Z,1007.84
2017-02-06T04:31:49.282Z,1007.85
2017-02-06T04:32:29.921Z,1007.87
2017-02-06T04:33:10.579Z,1007.93
2017-02-06T04:33:51.145Z,1007.92
2017-02-06T04:34:31.783Z,1007.95
2017-02-06T04:35:12.431Z,1007.99
2017-02-06T04:35:53.084Z,1008.02
2017-02-06T04:36:33.741Z,1007.99
2017-02-06T04:37:14.376Z,1008.02
2017-02-06T04:37:55.045Z,1008.03
2017-02-06T04:38:35.690Z,1008.07
2017-02-06T04:39:16.353Z,1008.05
2017-02-06T04:39:57.012Z,1008.05
2017-02-06T04:40:37.659Z,1008.04
2017-02-06T04:41:18.306Z,1008.04
2017-02-06T04:41:58.963Z,1008.04
2017-02-06T04:42:39.614Z,1008.07
2017-02-06T04:43:20.271Z,1008.04
2017-02-06T04:44:00.916Z,1008.06
2017-02-06T04:44:41.575Z,1008.07
2017-02-06T04:45:22.222Z,1008.11
2017-02-06T04:46:02.880Z,1008.08
2017-02-06T04:46:43.532Z,1008.08
2017-02-06T04:47:24.290Z,1008.06
2017-02-06T04:48:04.941Z,1008.09
2017-02-06T04:48:45.588Z,1008.09
2017-02-06T04:49:26.249Z,1008.11
2017-02-06T04:50:06.904Z,1008.09
2017-02-06T04:50:47.452Z,1008.1
2017-02-06T04:51:28.167Z,1008.11
2017-02-06T04:52:08.838Z,1008.06
2017-02-06T04:52:49.514Z,1008.12
2017-02-06T04:53:30.072Z,1008.12
2017-02-06T04:54:10.780Z,1008.12
2017-02-06T04:54:51.470Z,1008.16
2017-02-06T04:55:32.123Z,1008.14
2017-02-06T04:56:12.777Z,1008.17
2017-02-06T04:56:53.429Z,1008.19
2017-02-06T04:57:34.082Z,1008.21
2017-02-06T04:58:14.730Z,1008.22
2017-02-06T04:58:55.388Z,1008.2
2017-02-06T04:59:36.041Z,1008.23
2017-02-06T05:00:16.696Z,1008.2
2017-02-06T05:00:57.250Z,1008.24
2017-02-06T05:01:37.963Z,1008.22
2017-02-06T05:02:18.652Z,1008.22
2017-02-06T05:02:59.305Z,1008.22
2017-02-06T05:03:39.859Z,1008.23
2017-02-06T05:04:20.461Z,1008.22
2017-02-06T05:05:01.061Z,1008.21
2017-02-06T05:05:41.632Z,1008.24
2017-02-06T05:06:22.263Z,1008.23
2017-02-06T05:07:02.920Z,1008.28
2017-02-06T05:07:43.538Z,1008.28
2017-02-06T05:08:24.122Z,1008.29
2017-02-06T05:09:04.774Z,1008.28
2017-02-06T05:09:45.337Z,1008.26
2017-02-06T05:10:25.978Z,1008.26
2017-02-06T05:11:06.672Z,1008.28
2017-02-06T05:11:47.196Z,1008.24
2017-02-06T05:12:27.834Z,1008.28
2017-02-06T05:13:08.486Z,1008.28
2017-02-06T05:13:49.049Z,1008.32
2017-02-06T05:14:29.694Z,1008.31
2017-02-06T05:15:10.349Z,1008.35
2017-02-06T05:15:50.917Z,1008.37
2017-02-06T05:16:31.501Z,1008.4
2017-02-06T05:17:12.098Z,1008.46
2017-02-06T05:17:52.746Z,1008.44
2017-02-06T05:18:33.317Z,1008.41
2017-02-06T05:19:13.918Z,1008.49
2017-02-06T05:19:54.504Z,1008.48
2017-02-06T05:20:35.071Z,1008.48
2017-02-06T05:21:15.701Z,1008.53
2017-02-06T05:21:56.362Z,1008.48
2017-02-06T05:22:36.923Z,1008.47
2017-02-06T05:23:17.565Z,1008.49
2017-02-06T05:23:58.213Z,1008.47
2017-02-06T05:24:38.792Z,1008.49
2017-02-06T05:25:19.421Z,1008.5
2017-02-06T05:26:00.070Z,1008.52
2017-02-06T05:26:40.728Z,1008.53
2017-02-06T05:27:21.383Z,1008.54
2017-02-06T05:28:02.034Z,1008.56
2017-02-06T05:28:42.686Z,1008.57
2017-02-06T05:29:23.336Z,1008.58
2017-02-06T05:30:03.994Z,1008.59
2017-02-06T05:30:44.644Z,1008.58
2017-02-06T05:31:25.299Z,1008.62
2017-02-06T05:32:05.947Z,1008.61
2017-02-06T05:32:46.606Z,1008.6
2017-02-06T05:33:27.250Z,1008.64
2017-02-06T05:34:07.910Z,1008.64
2017-02-06T05:34:48.507Z,1008.66
2017-02-06T05:35:29.186Z,1008.66
2017-02-06T05:36:09.766Z,1008.71
2017-02-06T05:36:50.420Z,1008.64
2017-02-06T05:37:31.008Z,1008.68
2017-02-06T05:38:11.677Z,1008.69
2017-02-06T05:38:52.267Z,1008.73
2017-02-06T05:39:32.929Z,1008.7
2017-02-06T05:40:13.508Z,1008.72
2017-02-06T05:40:54.125Z,1008.73
2017-02-06T05:41:34.786Z,1008.76
2017-02-06T05:42:15.352Z,1008.77
2017-02-06T05:42:55.995Z,1008.77
2017-02-06T05:43:36.636Z,1008.8
2017-02-06T05:44:17.186Z,1008.78
2017-02-06T05:44:57.847Z,1008.81
2017-02-06T05:45:38.406Z,1008.81
2017-02-06T05:46:19.066Z,1008.78
2017-02-06T05:46:59.707Z,1008.79
2017-02-06T05:47:40.359Z,1008.8
2017-02-06T05:48:20.910Z,1008.76
2017-02-06T05:49:01.556Z,1008.78
2017-02-06T05:49:42.132Z,1008.78
2017-02-06T05:50:22.711Z,1008.8
2017-02-06T05:51:03.309Z,1008.81
2017-02-06T05:51:43.961Z,1008.82
2017-02-06T05:52:24.534Z,1008.83
2017-02-06T05:53:05.115Z,1008.84
2017-02-06T05:53:45.724Z,1008.86
2017-02-06T05:54:26.369Z,1008.9
2017-02-06T05:55:07.028Z,1008.87
2017-02-06T05:55:47.680Z,1008.89
2017-02-06T05:56:28.339Z,1008.89
2017-02-06T05:57:08.988Z,1008.92
2017-02-06T05:57:49.641Z,1008.94
2017-02-06T05:58:30.293Z,1008.94
2017-02-06T05:59:10.946Z,1008.96
2017-02-06T05:59:51.598Z,1008.95
2017-02-06T06:00:32.253Z,1008.96
2017-02-06T06:01:12.904Z,1008.94
2017-02-06T06:01:53.558Z,1008.97
2017-02-06T06:02:34.210Z,1008.95
2017-02-06T06:03:14.863Z,1008.98
2017-02-06T06:03:55.515Z,1008.98
2017-02-06T06:04:36.067Z,1008.95
2017-02-06T06:05:16.667Z,1008.99
2017-02-06T06:05:57.327Z,1009
2017-02-06T06:06:37.987Z,1008.95
2017-02-06T06:07:18.637Z,1009.04
2017-02-06T06:07:59.284Z,1009.01
2017-02-06T06:08:39.939Z,1009.07
2017-02-06T06:09:20.589Z,1009.07
2017-02-06T06:10:01.252Z,1009.06
2017-02-06T06:10:41.901Z,1009.07
2017-02-06T06:11:22.549Z,1009.12
2017-02-06T06:12:03.187Z,1009.09
2017-02-06T06:12:43.855Z,1009.12
2017-02-06T06:13:24.521Z,1009.13
2017-02-06T06:14:05.161Z,1009.13
2017-02-06T06:14:45.822Z,1009.2
2017-02-06T06:15:26.458Z,1009.18
2017-02-06T06:16:07.117Z,1009.2
2017-02-06T06:16:47.766Z,1009.23
2017-02-06T06:17:28.427Z,1009.23
2017-02-06T06:18:09.092Z,1009.26
2017-02-06T06:18:49.729Z,1009.25
2017-02-06T06:19:30.381Z,1009.23
2017-02-06T06:20:11.038Z,1009.32
2017-02-06T06:20:51.702Z,1009.32
2017-02-06T06:21:32.344Z,1009.33
2017-02-06T06:22:12.997Z,1009.29
2017-02-06T06:22:53.646Z,1009.35
2017-02-06T06:23:34.304Z,1009.36
2017-02-06T06:24:14.976Z,1009.39
2017-02-06T06:24:55.657Z,1009.4
2017-02-06T06:25:36.313Z,1009.42
2017-02-06T06:26:16.968Z,1009.39
2017-02-06T06:26:57.619Z,1009.47
2017-02-06T06:27:38.272Z,1009.5
2017-02-06T06:28:18.948Z,1009.46
2017-02-06T06:28:59.578Z,1009.47
2017-02-06T06:29:40.335Z,1009.5
2017-02-06T06:30:20.887Z,1009.52
2017-02-06T06:31:01.498Z,1009.48
2017-02-06T06:31:42.186Z,1009.46
2017-02-06T06:32:22.835Z,1009.46
2017-02-06T06:33:03.401Z,1009.48
2017-02-06T06:33:43.995Z,1009.47
2017-02-06T06:34:24.586Z,1009.47
2017-02-06T06:35:05.253Z,1009.46
2017-02-06T06:35:46.110Z,1009.48
2017-02-06T06:36:26.708Z,1009.46
2017-02-06T06:37:07.367Z,1009.5
2017-02-06T06:37:48.025Z,1009.53
2017-02-06T06:38:28.667Z,1009.54
2017-02-06T06:39:09.318Z,1009.59
2017-02-06T06:39:49.972Z,1009.6
2017-02-06T06:40:30.638Z,1009.64
2017-02-06T06:41:11.275Z,1009.68
2017-02-06T06:41:51.943Z,1009.68
2017-02-06T06:42:32.581Z,1009.69
2017-02-06T06:43:13.263Z,1009.7
2017-02-06T06:43:53.887Z,1009.73
2017-02-06T06:44:34.545Z,1009.79
2017-02-06T06:45:15.210Z,1009.79
2017-02-06T06:45:55.847Z,1009.79
2017-02-06T06:46:52.259Z,1009.79
2017-02-06T06:47:47.785Z,1009.78
2017-02-06T06:48:40.303Z,1009.81
2017-02-06T06:49:35.793Z,1009.79
2017-02-06T06:50:16.392Z,1009.78
2017-02-06T06:50:56.960Z,1009.82
2017-02-06T06:51:48.133Z,1009.81
2017-02-06T06:52:34.428Z,1009.78
2017-02-06T06:53:15.006Z,1009.82
2017-02-06T06:54:10.164Z,1009.82
2017-02-06T06:55:01.376Z,1009.81
2017-02-06T07:23:00.061Z,1010.41
2017-02-06T07:23:45.691Z,1010.43
2017-02-06T07:24:26.352Z,1010.42
2017-02-06T07:25:06.994Z,1010.46
2017-02-06T07:25:49.596Z,1010.46
2017-02-06T07:26:41.132Z,1010.49
2017-02-06T07:27:32.723Z,1010.52
2017-02-06T07:28:20.234Z,1010.55
2017-02-06T07:29:11.744Z,1010.59
2017-02-06T07:29:57.203Z,1010.62
2017-02-06T08:14:21.044Z,1011.4
2017-02-06T08:15:04.359Z,1011.43
2017-02-06T08:15:45.014Z,1011.4
2017-02-06T08:16:25.675Z,1011.42
2017-02-06T08:17:06.316Z,1011.43
2017-02-06T08:17:46.964Z,1011.45
2017-02-06T08:18:27.625Z,1011.4
2017-02-06T08:19:08.277Z,1011.44
2017-02-06T08:19:48.873Z,1011.43
2017-02-06T08:20:29.549Z,1011.49
2017-02-06T08:21:10.342Z,1011.48
2017-02-06T08:21:50.988Z,1011.51
2017-02-06T08:22:31.656Z,1011.52
2017-02-06T08:23:12.297Z,1011.55
2017-02-06T08:23:52.948Z,1011.56
2017-02-06T08:24:33.610Z,1011.62
2017-02-06T08:25:14.258Z,1011.58
2017-02-06T08:25:54.906Z,1011.59
2017-02-06T08:26:35.566Z,1011.59
2017-02-06T08:27:16.129Z,1011.62
2017-02-06T08:27:56.730Z,1011.58
2017-02-06T08:28:37.318Z,1011.6
2017-02-06T08:29:17.966Z,1011.62
2017-02-06T08:29:58.523Z,1011.64
2017-02-06T08:30:39.125Z,1011.64
2017-02-06T08:31:19.740Z,1011.67
2017-02-06T08:32:00.382Z,1011.7
2017-02-06T08:32:40.934Z,1011.69
2017-02-06T08:33:21.561Z,1011.7
2017-02-06T08:34:02.224Z,1011.75
2017-02-06T08:34:43.805Z,1011.74
2017-02-06T08:35:24.372Z,1011.77
2017-02-06T08:36:07.004Z,1011.8
2017-02-06T08:36:47.580Z,1011.77
2017-02-06T08:37:28.227Z,1011.76
2017-02-06T08:38:08.919Z,1011.77
2017-02-06T08:38:49.574Z,1011.77
2017-02-06T08:39:30.154Z,1011.77
2017-02-06T08:40:10.729Z,1011.78
2017-02-06T08:40:51.293Z,1011.78
2017-02-06T08:41:31.974Z,1011.83
2017-02-06T08:42:12.542Z,1011.8
2017-02-06T08:42:53.186Z,1011.84
2017-02-06T08:43:33.850Z,1011.82
2017-02-06T08:44:14.477Z,1011.83
2017-02-06T08:44:55.137Z,1011.83
2017-02-06T08:45:37.731Z,1011.82
2017-02-06T08:46:18.310Z,1011.82
2017-02-06T08:46:58.878Z,1011.83
2017-02-06T08:47:39.481Z,1011.83
2017-02-06T08:48:20.143Z,1011.86
2017-02-06T08:49:00.758Z,1011.85
2017-02-06T08:49:41.296Z,1011.86
2017-02-06T08:50:21.892Z,1011.9
2017-02-06T08:51:02.545Z,1011.85
2017-02-06T08:51:43.197Z,1011.88
2017-02-06T08:52:23.857Z,1011.88
2017-02-06T08:53:04.519Z,1011.86
2017-02-06T08:53:45.162Z,1011.86
2017-02-06T08:54:25.818Z,1011.87
2017-02-06T08:55:06.372Z,1011.85
2017-02-06T08:55:46.965Z,1011.83
2017-02-06T08:56:27.666Z,1011.85
2017-02-06T08:57:08.327Z,1011.87
2017-02-06T08:57:48.888Z,1011.83
2017-02-06T08:58:29.472Z,1011.83
2017-02-06T08:59:10.068Z,1011.86
2017-02-06T08:59:50.726Z,1011.89
2017-02-06T09:00:31.385Z,1011.89
2017-02-06T09:01:12.032Z,1011.92
2017-02-06T09:01:52.683Z,1011.92
2017-02-06T09:02:33.344Z,1011.95
2017-02-06T09:03:13.994Z,1011.92
2017-02-06T09:03:54.646Z,1011.93
2017-02-06T09:04:35.302Z,1011.91
2017-02-06T09:05:15.843Z,1011.97
2017-02-06T09:05:56.499Z,1011.99
2017-02-06T09:06:37.157Z,1011.99
2017-02-06T09:07:17.751Z,1011.96
2017-02-06T09:08:00.439Z,1011.98
2017-02-06T09:08:42.084Z,1012.03
2017-02-06T09:09:22.642Z,1011.99
2017-02-06T09:10:03.210Z,1012.01
2017-02-06T09:10:43.776Z,1011.99
2017-02-06T09:11:24.396Z,1012.01
2017-02-06T09:12:04.963Z,1012.02
2017-02-06T09:12:45.646Z,1012.02
2017-02-06T09:13:27.280Z,1012
2017-02-06T09:14:07.923Z,1012.07
2017-02-06T09:14:48.482Z,1012.01
2017-02-06T09:15:29.086Z,1012.07
2017-02-06T09:16:09.681Z,1012.06
2017-02-06T09:16:50.332Z,1012.09
2017-02-06T09:17:30.988Z,1012.1
2017-02-06T09:18:11.630Z,1012.11
2017-02-06T09:18:52.288Z,1012.14
2017-02-06T09:19:32.945Z,1012.14
2017-02-06T09:20:13.520Z,1012.14
2017-02-06T09:20:54.109Z,1012.16
2017-02-06T09:21:34.809Z,1012.16
2017-02-06T09:22:16.477Z,1012.2
2017-02-06T09:22:57.071Z,1012.23
2017-02-06T09:23:38.668Z,1012.17
2017-02-06T09:24:19.253Z,1012.19
2017-02-06T09:24:59.915Z,1012.19
2017-02-06T09:25:40.560Z,1012.24
2017-02-06T09:26:21.213Z,1012.25
2017-02-06T09:27:01.867Z,1012.22